createdAt,value
2022-09-17T00:02:14.733Z,4.03
2022-09-17T00:04:49.050Z,4.13
2022-09-17T00:07:16.447Z,4.07
2022-09-17T00:09:44.324Z,4.00
2022-09-17T00:12:18.054Z,3.63
2022-09-17T00:14:52.212Z,4.57
2022-09-17T00:17:28.068Z,3.90
2022-09-17T00:19:55.823Z,3.97
2022-09-17T00:22:24.775Z,3.77
2022-09-17T00:24:59.046Z,3.80
2022-09-17T00:27:26.597Z,3.60
2022-09-17T00:29:54.017Z,3.83
2022-09-17T00:32:28.068Z,3.50
2022-09-17T00:34:55.618Z,2.90
2022-09-17T00:37:23.408Z,3.43
2022-09-17T00:39:57.138Z,3.37
2022-09-17T00:42:24.636Z,3.13
2022-09-17T00:44:54.797Z,3.27
2022-09-17T00:47:48.362Z,2.67
2022-09-17T00:50:42.049Z,2.60
2022-09-17T00:53:20.367Z,2.50
2022-09-17T00:56:24.320Z,2.87
2022-09-17T00:59:03.481Z,2.40
2022-09-17T01:01:31.784Z,2.50
2022-09-17T01:03:59.468Z,2.47
2022-09-17T01:06:58.409Z,2.60
2022-09-17T01:10:06.405Z,2.10
2022-09-17T01:12:52.385Z,2.80
2022-09-17T01:15:43.203Z,2.20
2022-09-17T01:18:29.427Z,2.00
2022-09-17T01:21:19.495Z,2.13
2022-09-17T01:24:21.351Z,1.93
2022-09-17T01:27:16.985Z,2.10
2022-09-17T01:30:09.409Z,1.90
2022-09-17T01:32:52.280Z,2.17
2022-09-17T01:35:58.353Z,2.30
2022-09-17T01:38:44.574Z,1.70
2022-09-17T01:41:30.368Z,2.10
2022-09-17T01:44:43.195Z,2.23
2022-09-17T01:47:31.478Z,2.00
2022-09-17T01:50:08.682Z,2.10
2022-09-17T01:52:45.357Z,2.00
2022-09-17T01:55:16.172Z,2.40
2022-09-17T01:58:00.374Z,2.40
2022-09-17T02:00:31.001Z,2.50
2022-09-17T02:03:21.358Z,2.20
2022-09-17T02:05:59.221Z,2.33
2022-09-17T02:08:51.410Z,2.43
2022-09-17T02:11:19.808Z,2.40
2022-09-17T02:14:13.422Z,2.07
2022-09-17T02:16:48.334Z,2.20
2022-09-17T02:19:40.096Z,2.30
2022-09-17T02:22:32.321Z,1.90
2022-09-17T02:25:13.129Z,2.00
2022-09-17T02:27:57.853Z,2.10
2022-09-17T02:30:32.135Z,2.10
2022-09-17T02:33:02.372Z,1.83
2022-09-17T02:35:40.071Z,2.07
2022-09-17T02:38:07.497Z,2.00
2022-09-17T02:40:55.796Z,1.70
2022-09-17T02:43:47.632Z,1.70
2022-09-17T02:46:56.812Z,2.10
2022-09-17T02:49:45.111Z,1.83
2022-09-17T02:52:27.790Z,2.07
2022-09-17T02:55:16.775Z,1.80
2022-09-17T02:58:03.713Z,1.87
2022-09-17T03:00:34.076Z,2.23
2022-09-17T03:03:40.262Z,2.13
2022-09-17T03:06:08.243Z,2.27
2022-09-17T03:08:51.711Z,2.73
2022-09-17T03:11:21.071Z,2.17
2022-09-17T03:14:10.242Z,2.10
2022-09-17T03:16:40.247Z,2.60
2022-09-17T03:19:08.249Z,2.70
2022-09-17T03:21:42.229Z,3.03
2022-09-17T03:24:11.784Z,3.50
2022-09-17T03:26:39.509Z,2.73
2022-09-17T03:29:15.189Z,2.57
2022-09-17T03:31:42.920Z,3.37
2022-09-17T03:34:10.502Z,2.93
2022-09-17T03:36:45.243Z,2.60
2022-09-17T03:39:13.301Z,3.23
2022-09-17T03:41:40.728Z,2.50
2022-09-17T03:44:16.242Z,2.90
2022-09-17T03:46:43.693Z,2.87
2022-09-17T03:49:11.147Z,2.80
2022-09-17T03:51:49.497Z,2.70
2022-09-17T03:54:19.866Z,3.17
2022-09-17T03:56:47.256Z,2.87
2022-09-17T03:59:22.491Z,2.93
2022-09-17T04:01:50.039Z,2.90
2022-09-17T04:04:17.693Z,3.10
2022-09-17T04:06:51.477Z,3.50
2022-09-17T04:09:18.952Z,3.27
2022-09-17T04:11:49.218Z,3.00
2022-09-17T04:14:23.564Z,3.60
2022-09-17T04:16:51.097Z,3.27
2022-09-17T04:19:18.563Z,3.47
2022-09-17T04:21:52.506Z,2.73
2022-09-17T04:24:20.256Z,2.70
2022-09-17T04:26:47.622Z,3.87
2022-09-17T04:29:22.514Z,3.77
2022-09-17T04:31:49.925Z,3.23
2022-09-17T04:34:18.889Z,3.97
2022-09-17T04:36:52.491Z,3.27
2022-09-17T04:39:20.021Z,3.17
2022-09-17T04:41:48.028Z,3.30
2022-09-17T04:44:21.486Z,3.33
2022-09-17T04:46:48.909Z,3.23
2022-09-17T04:49:19.305Z,3.60
2022-09-17T04:51:53.489Z,3.13
2022-09-17T04:54:20.850Z,3.57
2022-09-17T04:56:48.320Z,3.40
2022-09-17T04:59:22.515Z,3.07
2022-09-17T05:01:49.963Z,3.13
2022-09-17T05:04:17.352Z,3.10
2022-09-17T05:06:51.479Z,3.43
2022-09-17T05:09:18.857Z,3.33
2022-09-17T05:11:46.507Z,3.20
2022-09-17T05:14:20.498Z,3.20
2022-09-17T05:16:47.890Z,3.17
2022-09-17T05:19:15.354Z,3.53
2022-09-17T05:21:49.546Z,3.50
2022-09-17T05:24:17.019Z,3.77
2022-09-17T05:26:44.466Z,2.80
2022-09-17T05:29:18.525Z,3.47
2022-09-17T05:31:47.119Z,2.80
2022-09-17T05:34:14.739Z,3.17
2022-09-17T05:36:53.512Z,3.10
2022-09-17T05:39:25.443Z,3.20
2022-09-17T05:42:01.580Z,3.67
2022-09-17T05:44:33.810Z,3.70
2022-09-17T05:47:02.457Z,4.00
2022-09-17T05:49:35.992Z,3.33
2022-09-17T05:52:03.953Z,3.00
2022-09-17T05:54:55.410Z,3.03
2022-09-17T05:57:24.045Z,3.20
2022-09-17T05:59:53.543Z,3.00
2022-09-17T06:02:27.693Z,3.00
2022-09-17T06:04:55.405Z,3.80
2022-09-17T06:07:22.798Z,3.60
2022-09-17T06:09:56.551Z,2.97
2022-09-17T06:12:24.260Z,3.77
2022-09-17T06:15:05.557Z,3.50
2022-09-17T06:17:36.904Z,3.53
2022-09-17T06:20:12.595Z,4.10
2022-09-17T06:22:41.015Z,3.80
2022-09-17T06:25:08.758Z,3.80
2022-09-17T06:27:43.523Z,3.00
2022-09-17T06:30:11.340Z,3.50
2022-09-17T06:32:39.885Z,4.20
2022-09-17T06:35:14.673Z,3.83
2022-09-17T06:37:42.042Z,3.57
2022-09-17T06:40:10.171Z,3.83
2022-09-17T06:42:47.718Z,3.33
2022-09-17T06:45:17.148Z,3.60
2022-09-17T06:47:45.094Z,3.40
2022-09-17T06:50:39.325Z,3.63
2022-09-17T06:53:11.042Z,3.70
2022-09-17T06:55:51.094Z,3.00
2022-09-17T06:58:19.024Z,3.33
2022-09-17T07:00:49.965Z,3.60
2022-09-17T07:03:26.921Z,2.73
2022-09-17T07:05:55.079Z,3.13
2022-09-17T07:08:24.396Z,3.00
2022-09-17T07:11:03.584Z,2.70
2022-09-17T07:13:38.864Z,2.80
2022-09-17T07:16:22.026Z,2.73
2022-09-17T07:18:49.583Z,2.83
2022-09-17T07:21:19.309Z,2.47
2022-09-17T07:23:59.650Z,3.47
2022-09-17T07:26:28.268Z,3.73
2022-09-17T07:28:59.365Z,3.60
2022-09-17T07:31:36.223Z,3.80
2022-09-17T07:34:06.243Z,4.67
2022-09-17T07:36:34.109Z,4.00
2022-09-17T07:39:10.016Z,4.67
2022-09-17T07:41:38.051Z,4.37
2022-09-17T07:44:07.396Z,4.33
2022-09-17T07:46:42.258Z,5.13
2022-09-17T07:49:10.023Z,5.20
2022-09-17T07:51:40.515Z,5.63
2022-09-17T07:54:14.956Z,6.00
2022-09-17T07:56:45.090Z,5.47
2022-09-17T07:59:13.425Z,5.83
2022-09-17T08:01:48.126Z,5.00
2022-09-17T08:04:18.082Z,5.53
2022-09-17T08:06:55.152Z,5.17
2022-09-17T08:09:23.551Z,5.67
2022-09-17T08:11:56.000Z,4.93
2022-09-17T08:14:31.000Z,4.60
2022-09-17T08:17:00.729Z,4.53
2022-09-17T08:19:31.255Z,4.30
2022-09-17T08:22:05.635Z,5.10
2022-09-17T08:24:33.018Z,5.43
2022-09-17T08:27:00.521Z,4.43
2022-09-17T08:29:35.438Z,4.07
2022-09-17T08:32:03.855Z,4.80
2022-09-17T08:34:31.578Z,4.30
2022-09-17T08:37:05.787Z,3.93
2022-09-17T08:39:33.436Z,3.80
2022-09-17T08:42:20.673Z,3.47
2022-09-17T08:44:51.864Z,4.13
2022-09-17T08:47:47.678Z,4.63
2022-09-17T08:50:31.304Z,4.30
2022-09-17T08:53:17.666Z,4.73
2022-09-17T08:56:01.587Z,4.60
2022-09-17T08:58:56.747Z,4.50
2022-09-17T09:01:24.409Z,5.00
2022-09-17T09:04:26.662Z,4.77
2022-09-17T09:07:04.563Z,4.47
2022-09-17T09:09:48.063Z,4.70
2022-09-17T09:12:37.697Z,4.67
2022-09-17T09:15:51.688Z,4.00
2022-09-17T09:18:33.778Z,3.63
2022-09-17T09:21:34.635Z,3.50
2022-09-17T09:24:20.301Z,3.20
2022-09-17T09:26:58.901Z,2.77
2022-09-17T09:29:35.451Z,3.47
2022-09-17T09:32:36.607Z,3.63
2022-09-17T09:35:18.532Z,3.60
2022-09-17T09:38:18.625Z,3.60
2022-09-17T09:40:55.561Z,3.20
2022-09-17T09:44:04.446Z,3.10
2022-09-17T09:47:12.534Z,3.58
2022-09-17T09:50:48.424Z,2.95
2022-09-17T09:53:47.047Z,2.20
2022-09-17T09:56:39.686Z,2.42
2022-09-17T09:59:13.514Z,2.40
2022-09-17T10:01:51.774Z,2.33
2022-09-17T10:04:21.525Z,2.00
2022-09-17T10:06:58.666Z,2.78
2022-09-17T10:09:28.405Z,2.28
2022-09-17T10:12:17.675Z,2.05
2022-09-17T10:14:54.077Z,2.00
2022-09-17T10:17:31.649Z,2.17
2022-09-17T10:20:07.205Z,2.17
2022-09-17T10:22:52.730Z,2.60
2022-09-17T10:25:32.209Z,1.60
2022-09-17T10:28:09.634Z,1.67
2022-09-17T10:30:37.354Z,1.83
2022-09-17T10:33:30.804Z,1.90
2022-09-17T10:36:02.831Z,1.88
2022-09-17T10:38:39.669Z,1.75
2022-09-17T10:41:21.836Z,2.00
2022-09-17T10:43:59.692Z,3.85
2022-09-17T10:46:30.962Z,1.63
2022-09-17T10:49:13.627Z,1.50
2022-09-17T10:51:41.664Z,1.70
2022-09-17T10:54:51.707Z,1.63
2022-09-17T10:57:39.333Z,1.88
2022-09-17T11:00:33.985Z,1.85
2022-09-17T11:03:37.804Z,1.88
2022-09-17T11:06:29.990Z,1.80
2022-09-17T11:09:22.608Z,1.60
2022-09-17T11:12:02.730Z,1.50
2022-09-17T11:14:56.884Z,1.42
2022-09-17T11:17:37.961Z,1.70
2022-09-17T11:20:16.830Z,1.42
2022-09-17T11:23:12.761Z,1.80
2022-09-17T11:26:00.970Z,1.00
2022-09-17T11:28:43.797Z,1.23
2022-09-17T11:31:25.566Z,1.58
2022-09-17T11:34:02.768Z,1.25
2022-09-17T11:37:04.261Z,1.60
2022-09-17T11:39:44.783Z,1.30
2022-09-17T11:42:21.221Z,1.30
2022-09-17T11:45:01.768Z,1.63
2022-09-17T11:47:56.620Z,1.50
2022-09-17T11:50:40.692Z,1.40
2022-09-17T11:53:28.494Z,1.98
2022-09-17T11:56:30.660Z,1.55
2022-09-17T11:59:20.652Z,1.17
2022-09-17T12:02:20.895Z,1.50
2022-09-17T12:05:03.006Z,1.40
2022-09-17T12:08:16.756Z,1.38
2022-09-17T12:10:53.690Z,1.60
2022-09-17T12:13:51.762Z,1.25
2022-09-17T12:16:31.778Z,1.30
2022-09-17T12:19:24.710Z,1.38
2022-09-17T12:22:17.081Z,1.15
2022-09-17T12:24:51.744Z,1.60
2022-09-17T12:27:27.450Z,1.50
2022-09-17T12:30:14.067Z,1.83
2022-09-17T12:32:53.617Z,1.23
2022-09-17T12:36:03.127Z,1.30
2022-09-17T12:38:35.854Z,1.45
2022-09-17T12:41:47.771Z,1.20
2022-09-17T12:45:11.137Z,1.25
2022-09-17T12:48:29.713Z,1.10
2022-09-17T12:51:07.439Z,1.07
2022-09-17T12:54:13.051Z,1.13
2022-09-17T12:56:46.794Z,1.27
2022-09-17T12:59:26.821Z,1.63
2022-09-17T13:02:13.146Z,1.40
2022-09-17T13:05:02.162Z,1.57
2022-09-17T13:07:40.655Z,2.37
2022-09-17T13:10:33.796Z,2.10
2022-09-17T13:13:26.062Z,1.73
2022-09-17T13:16:41.937Z,2.33
2022-09-17T13:19:27.155Z,2.20
2022-09-17T13:22:16.914Z,1.80
2022-09-17T13:25:03.469Z,1.93
2022-09-17T13:27:38.766Z,1.80
2022-09-17T13:30:11.292Z,2.70
2022-09-17T13:32:46.658Z,2.25
2022-09-17T13:35:17.144Z,1.80
2022-09-17T13:38:02.703Z,1.93
2022-09-17T13:40:36.042Z,1.70
2022-09-17T13:43:10.691Z,1.90
2022-09-17T13:46:00.442Z,1.40
2022-09-17T13:48:39.744Z,1.80
2022-09-17T13:51:32.505Z,1.80
2022-09-17T13:54:10.677Z,1.90
2022-09-17T13:56:43.614Z,1.92
2022-09-17T13:59:24.978Z,1.63
2022-09-17T14:02:02.824Z,1.75
2022-09-17T14:04:53.647Z,1.95
2022-09-17T14:07:24.524Z,1.80
2022-09-17T14:10:08.671Z,1.70
2022-09-17T14:12:45.251Z,1.48
2022-09-17T14:15:48.558Z,1.45
2022-09-17T14:18:28.677Z,1.90
2022-09-17T14:21:32.368Z,1.48
2022-09-17T14:24:19.038Z,1.98
2022-09-17T14:27:02.545Z,1.88
2022-09-17T14:29:48.902Z,1.88
2022-09-17T14:32:59.541Z,1.48
2022-09-17T14:35:39.892Z,1.80
2022-09-17T14:38:29.622Z,1.98
2022-09-17T14:41:07.841Z,2.50
2022-09-17T14:43:48.641Z,2.47
2022-09-17T14:46:38.711Z,1.87
2022-09-17T14:49:37.507Z,1.73
2022-09-17T14:52:23.808Z,2.80
2022-09-17T14:55:18.585Z,2.92
2022-09-17T14:57:54.363Z,2.25
2022-09-17T15:00:36.594Z,2.10
2022-09-17T15:03:04.933Z,2.42
2022-09-17T15:05:44.539Z,2.08
2022-09-17T15:08:14.576Z,2.50
2022-09-17T15:11:13.676Z,1.90
2022-09-17T15:13:54.178Z,2.60
2022-09-17T15:16:43.571Z,1.85
2022-09-17T15:19:14.344Z,1.85
2022-09-17T15:21:51.547Z,1.80
2022-09-17T15:24:23.855Z,2.17
2022-09-17T15:27:00.554Z,1.67
2022-09-17T15:29:32.688Z,2.10
2022-09-17T15:32:09.515Z,1.92
2022-09-17T15:34:37.275Z,1.95
2022-09-17T15:37:32.598Z,2.45
2022-09-17T15:40:11.682Z,4.32
2022-09-17T15:42:46.548Z,1.98
2022-09-17T15:45:22.578Z,2.67
2022-09-17T15:48:11.124Z,1.58
2022-09-17T15:50:54.240Z,1.70
2022-09-17T15:53:31.518Z,2.05
2022-09-17T15:56:16.626Z,1.90
2022-09-17T15:58:55.601Z,1.75
2022-09-17T16:01:49.268Z,1.88
2022-09-17T16:04:28.526Z,1.87
2022-09-17T16:07:14.341Z,2.78
2022-09-17T16:09:59.597Z,2.07
2022-09-17T16:12:31.476Z,2.53
2022-09-17T16:15:21.837Z,2.17
2022-09-17T16:17:49.669Z,1.55
2022-09-17T16:20:20.742Z,1.40
2022-09-17T16:22:55.924Z,1.92
2022-09-17T16:25:26.954Z,1.50
2022-09-17T16:28:12.533Z,1.30
2022-09-17T16:30:43.966Z,1.70
2022-09-17T16:33:19.610Z,1.80
2022-09-17T16:36:04.676Z,2.87
2022-09-17T16:38:38.536Z,2.53
2022-09-17T16:41:07.009Z,1.47
2022-09-17T16:43:35.530Z,1.97
2022-09-17T16:46:12.734Z,1.70
2022-09-17T16:48:41.373Z,2.00
2022-09-17T16:51:10.061Z,2.43
2022-09-17T16:53:44.584Z,2.10
2022-09-17T16:56:15.052Z,2.00
2022-09-17T16:58:43.419Z,1.80
2022-09-17T17:01:22.627Z,1.67
2022-09-17T17:03:54.304Z,1.87
2022-09-17T17:06:29.611Z,1.70
2022-09-17T17:09:03.994Z,1.47
2022-09-17T17:11:37.540Z,1.67
2022-09-17T17:14:05.651Z,1.60
2022-09-17T17:16:47.523Z,1.73
2022-09-17T17:19:15.191Z,2.10
2022-09-17T17:21:46.486Z,1.60
2022-09-17T17:24:21.624Z,1.30
2022-09-17T17:26:49.127Z,1.83
2022-09-17T17:29:16.899Z,1.37
2022-09-17T17:31:50.567Z,1.47
2022-09-17T17:34:18.424Z,1.60
2022-09-17T17:36:48.312Z,1.40
2022-09-17T17:39:22.542Z,1.30
2022-09-17T17:41:51.910Z,1.07
2022-09-17T17:44:20.036Z,1.50
2022-09-17T17:46:56.583Z,1.20
2022-09-17T17:49:24.160Z,0.97
2022-09-17T17:51:53.470Z,1.40
2022-09-17T17:54:29.640Z,1.50
2022-09-17T17:56:57.297Z,1.53
2022-09-17T17:59:24.901Z,1.17
2022-09-17T18:01:58.663Z,1.20
2022-09-17T18:04:26.385Z,1.33
2022-09-17T18:06:54.055Z,1.70
2022-09-17T18:09:28.564Z,1.20
2022-09-17T18:11:56.279Z,1.50
2022-09-17T18:14:23.942Z,1.57
2022-09-17T18:16:58.637Z,1.70
2022-09-17T18:19:33.019Z,1.40
2022-09-17T18:22:07.624Z,1.90
2022-09-17T18:24:35.332Z,1.63
2022-09-17T18:27:03.102Z,1.77
2022-09-17T18:29:37.917Z,1.50
2022-09-17T18:32:05.722Z,1.70
2022-09-17T18:34:36.607Z,1.70
2022-09-17T18:37:13.672Z,1.70
2022-09-17T18:39:58.900Z,1.50
2022-09-17T18:42:34.570Z,1.63
2022-09-17T18:45:03.294Z,1.70
2022-09-17T18:47:30.777Z,1.60
2022-09-17T18:50:04.648Z,1.80
2022-09-17T18:52:32.143Z,1.60
2022-09-17T18:55:01.579Z,1.57
2022-09-17T18:57:35.694Z,1.40
2022-09-17T19:00:07.237Z,1.60
2022-09-17T19:02:35.410Z,1.47
2022-09-17T19:05:10.305Z,1.57
2022-09-17T19:07:37.812Z,2.27
2022-09-17T19:10:05.757Z,1.23
2022-09-17T19:12:39.567Z,1.10
2022-09-17T19:15:30.525Z,1.00
2022-09-17T19:18:05.613Z,0.97
2022-09-17T19:20:37.243Z,0.80
2022-09-17T19:23:05.303Z,0.83
2022-09-17T19:25:41.594Z,0.70
2022-09-17T19:28:10.645Z,0.80
2022-09-17T19:30:38.146Z,0.70
2022-09-17T19:33:12.576Z,0.70
2022-09-17T19:35:40.122Z,0.80
2022-09-17T19:38:12.550Z,1.20
2022-09-17T19:40:48.567Z,1.87
2022-09-17T19:43:15.973Z,1.67
2022-09-17T19:45:43.539Z,1.67
2022-09-17T19:48:20.013Z,2.60
2022-09-17T19:50:53.664Z,2.13
2022-09-17T19:53:28.584Z,3.03
2022-09-17T19:55:56.489Z,3.00
2022-09-17T19:58:26.376Z,2.97
2022-09-17T20:01:04.562Z,2.73
2022-09-17T20:03:32.150Z,3.37
2022-09-17T20:06:01.342Z,3.40
2022-09-17T20:08:40.831Z,3.03
2022-09-17T20:11:10.897Z,2.97
2022-09-17T20:13:45.590Z,3.07
2022-09-17T20:16:21.641Z,3.33
2022-09-17T20:18:56.691Z,3.03
2022-09-17T20:21:28.452Z,3.30
2022-09-17T20:24:03.602Z,3.20
2022-09-17T20:26:31.139Z,2.93
2022-09-17T20:28:59.347Z,3.00
2022-09-17T20:31:36.691Z,3.43
2022-09-17T20:34:04.587Z,2.80
2022-09-17T20:36:35.414Z,2.90
2022-09-17T20:39:21.151Z,3.20
2022-09-17T20:41:49.664Z,3.47
2022-09-17T20:44:24.576Z,3.20
2022-09-17T20:46:52.579Z,3.33
2022-09-17T20:49:20.067Z,2.53
2022-09-17T20:51:54.771Z,2.80
2022-09-17T20:54:22.279Z,2.70
2022-09-17T20:56:49.696Z,3.23
2022-09-17T20:59:31.584Z,3.00
2022-09-17T21:01:59.178Z,2.80
2022-09-17T21:04:27.275Z,3.03
2022-09-17T21:07:02.838Z,2.77
2022-09-17T21:09:30.436Z,2.90
2022-09-17T21:11:57.925Z,2.70
2022-09-17T21:14:36.482Z,2.80
2022-09-17T21:17:11.664Z,3.10
2022-09-17T21:19:45.601Z,2.40
2022-09-17T21:22:13.024Z,3.03
2022-09-17T21:24:40.506Z,2.50
2022-09-17T21:27:15.561Z,2.73
2022-09-17T21:29:43.002Z,2.70
2022-09-17T21:32:10.409Z,2.40
2022-09-17T21:34:44.568Z,2.33
2022-09-17T21:37:11.997Z,2.60
2022-09-17T21:39:39.420Z,2.57
2022-09-17T21:42:14.583Z,2.37
2022-09-17T21:44:42.070Z,2.40
2022-09-17T21:47:12.388Z,3.07
2022-09-17T21:49:46.565Z,2.37
2022-09-17T21:52:14.034Z,2.37
2022-09-17T21:54:41.398Z,2.87
2022-09-17T21:57:15.550Z,2.20
2022-09-17T21:59:43.039Z,3.40
2022-09-17T22:02:11.130Z,3.13
2022-09-17T22:04:46.556Z,2.87
2022-09-17T22:07:13.969Z,2.50
2022-09-17T22:09:41.407Z,2.63
2022-09-17T22:12:15.600Z,2.73
2022-09-17T22:14:43.064Z,2.47
2022-09-17T22:17:24.559Z,2.97
2022-09-17T22:19:51.929Z,2.47
2022-09-17T22:22:19.350Z,2.60
2022-09-17T22:24:53.599Z,3.00
2022-09-17T22:27:21.052Z,2.83
2022-09-17T22:29:48.470Z,2.70
2022-09-17T22:32:22.568Z,2.93
2022-09-17T22:34:50.630Z,2.77
2022-09-17T22:37:18.021Z,2.73
2022-09-17T22:39:52.630Z,2.80
2022-09-17T22:42:20.060Z,3.87
2022-09-17T22:44:47.546Z,2.60
2022-09-17T22:47:21.565Z,3.00
2022-09-17T22:49:49.262Z,2.77
2022-09-17T22:52:16.665Z,3.27
2022-09-17T22:54:50.586Z,2.63
2022-09-17T22:57:18.046Z,2.80
2022-09-17T22:59:45.523Z,3.37
2022-09-17T23:02:19.638Z,2.80
2022-09-17T23:04:47.077Z,3.10
2022-09-17T23:07:14.501Z,2.60
2022-09-17T23:09:48.595Z,2.97
2022-09-17T23:12:16.012Z,3.30
2022-09-17T23:14:43.639Z,2.87
2022-09-17T23:17:17.596Z,3.30
2022-09-17T23:19:45.021Z,2.90
2022-09-17T23:22:12.429Z,2.77
2022-09-17T23:24:46.574Z,3.13
2022-09-17T23:27:13.996Z,2.73
2022-09-17T23:29:41.679Z,2.90
2022-09-17T23:32:18.645Z,3.07
2022-09-17T23:34:46.033Z,2.80
2022-09-17T23:37:13.665Z,3.33
2022-09-17T23:39:48.593Z,3.00
2022-09-17T23:42:16.881Z,3.00
2022-09-17T23:44:44.267Z,3.10
2022-09-17T23:47:18.566Z,2.73
2022-09-17T23:49:46.149Z,2.80
2022-09-17T23:52:13.608Z,3.13
2022-09-17T23:54:47.590Z,3.10
2022-09-17T23:57:15.033Z,2.90
2022-09-17T23:59:42.444Z,3.00
